Northwood, IA

9:22 AM CDT on June 03, 2015 (GMT -0500)
Mason City Municipal | | Change Station
CLOSE
Current Station
Airport
Location: Mason City,
Elevation: 1214 ft
Nearby Weather Stations

Elev 1214 ft 43.16 °N, 93.33 °W | Updated 29 minutes ago

Overcast
Overcast
62 °F
Feels Like 62 °F
N
18
Wind Variable Wind from SE

Today
High -- | Low -- °F
--% Chance of Precip.
Yesterday
High -- | Low -- °F
Precip. -- in
5:34 AM 8:48 PM
Full, 99% visible
Pressure 29.86 in
Visibility 9.0 miles
Clouds Few 2400 ft
Few 9000 ft
Dew Point 57 °F
Humidity 84%
Rainfall 0.02 in
Snow Depth Not available.
UV 4 out of 12
Pollen 3.70 out of 12
Air Quality Not available.
Flu Activity No Activity
METAR KMCW 031353Z AUTO 14016KT 9SM FEW024 FEW090 17/14 A2988 RMK AO2 RAE09B31E44 SLP111 P0000 T01670139

More Conditions Fewer Conditions

Pressure 29.86 in
Visibility 9.0 miles
Clouds Few 2400 ft
Few 9000 ft
Dew Point 57 °F
Humidity 84%
Rainfall 0.02 in
Snow Depth Not available.
UV 4 out of 12
Pollen 3.70 out of 12
Air Quality Not available.
Flu Activity No Activity
METAR KMCW 031353Z AUTO 14016KT 9SM FEW024 FEW090 17/14 A2988 RMK AO2 RAE09B31E44 SLP111 P0000 T01670139

More Conditions Fewer Conditions

10-Day Weather Forecast

×

Almanac

Astronomy

Jun. 03, 2015 Rise Set
Actual Time
Civil Twilight
Nautical Twilight
Astronomical Twilight
Moon
Length of Visible Light
Length of Day
Tomorrow will be .
, % of the Moon is Illuminated

Today's Extremes

State Highs State Lows

Community

WunderPhotos

Upload Photos

1,826,229 photos uploaded!

WunderBlogs® & News

Nearby

Air Quality

  Air Quality AQ Index Pollutant
Not available.

Snow Depth

Station Depth Elevation

Earthquake Activity

City Distance Mag. Time & Date
Minimum magnitude displayed is 2.5.

Coastal Water Temperatures

Place Temperature

Stations

Nearby Weather Stations

Station Location Temp. Windchill Dew Point Humidity Wind Precip. Elev Updated Type